Time;durP1;ratioP1;P1;durP2;ratioP2;P2;SDS_P1;SDS_P2;PMS_P1;PMS_P2;Temp;Humidity;BMP_temperature;BMP_pressure;BME280_temperature;BME280_humidity;BME280_pressure;Samples;Min_cycle;Max_cycle;Signal;HPM_P1;HPM_P2
2021/07/16 00:00:20;;;;;;;22.73;19.60;;;17.70;21.90;;;;;;5030549;28;20025;-87
2021/07/16 00:02:48;;;;;;;22.02;19.58;;;17.80;23.60;;;;;;5031737;28;20056;-86
2021/07/16 00:05:14;;;;;;;22.33;18.88;;;17.80;22.10;;;;;;5031389;28;20650;-86
2021/07/16 00:07:41;;;;;;;21.98;19.50;;;17.80;20.90;;;;;;5030929;28;20134;-87
2021/07/16 00:10:09;;;;;;;22.98;19.70;;;17.80;22.80;;;;;;5031172;28;20052;-87
2021/07/16 00:12:36;;;;;;;24.45;19.98;;;17.80;22.70;;;;;;5028169;28;20121;-86
2021/07/16 00:15:02;;;;;;;25.10;20.05;;;17.80;24.80;;;;;;5031953;28;20472;-87
2021/07/16 00:17:28;;;;;;;22.13;19.40;;;17.80;25.40;;;;;;5032604;28;20210;-87
2021/07/16 00:19:53;;;;;;;21.88;19.20;;;17.80;23.60;;;;;;5032695;28;20072;-86
2021/07/16 00:22:22;;;;;;;20.95;18.13;;;17.80;22.40;;;;;;5031012;28;20045;-87
2021/07/16 00:24:48;;;;;;;21.50;18.98;;;17.80;25.70;;;;;;5030032;28;20041;-86
2021/07/16 00:27:14;;;;;;;20.90;17.70;;;17.80;25.40;;;;;;5031496;28;20152;-86
2021/07/16 00:29:39;;;;;;;21.75;18.25;;;17.90;22.40;;;;;;5030998;28;20025;-87
2021/07/16 00:32:05;;;;;;;19.77;17.25;;;17.90;21.60;;;;;;5033303;28;20018;-86
2021/07/16 00:34:31;;;;;;;20.38;17.73;;;17.90;19.70;;;;;;5031086;28;20064;-86
2021/07/16 00:36:57;;;;;;;21.50;18.13;;;17.90;16.50;;;;;;5031173;28;20030;-86
2021/07/16 00:39:22;;;;;;;18.58;16.67;;;17.90;17.80;;;;;;5029526;28;20100;-86
2021/07/16 00:41:48;;;;;;;19.20;17.00;;;17.90;15.60;;;;;;5030600;28;20465;-86
2021/07/16 00:44:14;;;;;;;21.67;18.42;;;17.90;17.90;;;;;;5031954;28;20040;-86
2021/07/16 00:46:39;;;;;;;21.55;18.52;;;17.90;18.30;;;;;;5030075;28;20087;-86
2021/07/16 00:49:05;;;;;;;20.33;18.20;;;17.80;20.20;;;;;;5026375;28;20029;-87
2021/07/16 00:51:31;;;;;;;23.63;18.50;;;17.80;20.20;;;;;;5029576;28;20508;-87
2021/07/16 00:53:56;;;;;;;22.05;19.75;;;17.70;20.10;;;;;;5030869;28;20030;-86
2021/07/16 00:56:22;;;;;;;22.15;19.80;;;17.70;23.00;;;;;;5032822;28;20104;-87
2021/07/16 00:58:49;;;;;;;22.10;19.25;;;17.70;23.20;;;;;;5030901;28;20064;-86
2021/07/16 01:01:14;;;;;;;21.90;19.17;;;17.70;24.60;;;;;;5030650;28;20029;-85
2021/07/16 01:03:41;;;;;;;23.35;20.23;;;17.70;24.70;;;;;;5028647;28;20036;-87
2021/07/16 01:06:06;;;;;;;24.23;20.08;;;17.80;23.40;;;;;;5030538;28;20045;-86
2021/07/16 01:08:32;;;;;;;25.95;21.20;;;17.90;21.70;;;;;;5031362;28;20551;-87
2021/07/16 01:10:58;;;;;;;23.65;20.08;;;17.80;21.80;;;;;;5031568;28;20036;-87
2021/07/16 01:13:24;;;;;;;24.45;21.27;;;17.80;24.40;;;;;;5028642;28;20067;-86
2021/07/16 01:15:49;;;;;;;27.33;21.77;;;17.80;24.10;;;;;;5030664;28;20029;-86
2021/07/16 01:18:15;;;;;;;28.92;22.83;;;17.90;21.80;;;;;;5029010;28;20021;-87
2021/07/16 01:20:41;;;;;;;26.13;22.25;;;17.90;20.70;;;;;;5030794;28;20040;-86
2021/07/16 01:23:16;;;;;;;27.33;22.63;;;18.20;19.70;;;;;;5030825;28;20033;-86
2021/07/16 01:25:42;;;;;;;29.63;23.35;;;17.90;21.30;;;;;;5028341;28;20394;-87
2021/07/16 01:28:08;;;;;;;28.08;22.75;;;17.90;29.20;;;;;;5028447;28;20029;-86
2021/07/16 01:30:34;;;;;;;32.80;24.30;;;17.90;20.80;;;;;;5028696;28;20571;-86
2021/07/16 01:33:01;;;;;;;27.48;23.33;;;17.90;17.90;;;;;;5030430;28;20037;-86
2021/07/16 01:35:28;;;;;;;29.17;23.40;;;17.90;20.00;;;;;;5031352;28;20021;-87
2021/07/16 01:37:54;;;;;;;31.85;24.42;;;17.90;18.90;;;;;;5029007;28;20026;-87
2021/07/16 01:40:23;;;;;;;32.65;23.77;;;17.90;18.10;;;;;;5029455;28;20413;-86
2021/07/16 01:42:55;;;;;;;29.02;23.38;;;17.90;18.40;;;;;;5030033;28;20029;-87
2021/07/16 01:45:24;;;;;;;32.83;23.73;;;17.90;19.90;;;;;;5030317;28;20029;-86
2021/07/16 01:47:55;;;;;;;30.33;24.45;;;17.90;21.50;;;;;;5029760;28;20029;-87
2021/07/16 01:50:21;;;;;;;31.83;24.58;;;17.80;19.90;;;;;;5027881;28;20382;-86
2021/07/16 01:52:48;;;;;;;33.20;25.50;;;17.80;21.60;;;;;;5028054;28;20036;-86
2021/07/16 01:55:15;;;;;;;30.90;24.75;;;17.70;30.00;;;;;;5029845;28;20060;-86
2021/07/16 01:57:49;;;;;;;35.35;25.58;;;17.80;27.30;;;;;;5030802;28;20032;-87
2021/07/16 02:00:17;;;;;;;35.10;26.75;;;17.70;26.10;;;;;;5028702;28;20033;-87
2021/07/16 02:02:51;;;;;;;35.83;27.13;;;17.60;34.40;;;;;;5029930;28;20033;-86
2021/07/16 02:05:18;;;;;;;36.03;27.10;;;17.60;40.60;;;;;;5031928;28;20429;-87
2021/07/16 02:07:52;;;;;;;38.45;27.48;;;17.60;41.70;;;;;;5026935;28;20853;-86
2021/07/16 02:10:19;;;;;;;37.13;27.83;;;17.60;43.30;;;;;;5029990;28;20025;-86
2021/07/16 02:12:45;;;;;;;39.88;26.42;;;17.60;52.50;;;;;;5026982;28;20030;-87
2021/07/16 02:15:16;;;;;;;33.63;26.40;;;17.60;49.30;;;;;;5029730;28;20072;-87
2021/07/16 02:17:42;;;;;;;33.67;25.98;;;17.50;53.50;;;;;;5029992;28;20056;-87
2021/07/16 02:20:25;;;;;;;32.88;26.35;;;17.50;56.40;;;;;;5030004;28;20032;-87
2021/07/16 02:22:52;;;;;;;33.70;24.60;;;17.50;59.30;;;;;;5029890;28;20593;-86
2021/07/16 02:25:19;;;;;;;34.53;25.27;;;17.60;59.30;;;;;;5029565;28;20039;-87
2021/07/16 02:27:46;;;;;;;31.00;24.10;;;17.60;50.70;;;;;;5027611;28;20025;-87
2021/07/16 02:30:13;;;;;;;29.10;23.25;;;17.50;52.50;;;;;;5029662;28;20477;-86
2021/07/16 02:32:39;;;;;;;26.83;22.42;;;17.50;53.00;;;;;;5029202;28;20037;-86
2021/07/16 02:35:07;;;;;;;26.00;21.08;;;17.50;57.30;;;;;;5030590;28;20386;-87
2021/07/16 02:37:34;;;;;;;27.67;21.60;;;17.50;49.50;;;;;;5031157;28;20648;-87
2021/07/16 02:40:02;;;;;;;21.23;18.05;;;17.50;49.80;;;;;;5032095;28;20036;-86
2021/07/16 02:42:28;;;;;;;16.05;14.35;;;17.40;40.60;;;;;;5031733;28;20125;-87
2021/07/16 02:44:53;;;;;;;14.52;12.35;;;17.40;28.60;;;;;;5033411;28;20060;-86
2021/07/16 02:47:19;;;;;;;13.05;11.57;;;17.50;24.30;;;;;;5035244;28;20030;-86
2021/07/16 02:49:44;;;;;;;11.93;10.73;;;17.50;18.40;;;;;;5031515;28;20028;-86
2021/07/16 02:52:10;;;;;;;12.07;10.05;;;17.50;15.70;;;;;;5033488;28;20033;-87
2021/07/16 02:54:36;;;;;;;10.88;9.48;;;17.40;14.30;;;;;;5032878;28;20014;-86
2021/07/16 02:57:03;;;;;;;10.02;9.00;;;17.40;15.70;;;;;;5033597;28;20057;-86
2021/07/16 02:59:29;;;;;;;10.40;9.32;;;17.40;13.40;;;;;;5034287;28;20034;-86
2021/07/16 03:01:59;;;;;;;13.18;9.48;;;17.40;15.00;;;;;;5032483;28;20057;-86
2021/07/16 03:04:25;;;;;;;11.57;8.70;;;17.40;22.90;;;;;;5032757;28;20040;-87
2021/07/16 03:06:51;;;;;;;11.10;9.23;;;17.40;15.20;;;;;;5032706;28;20069;-86
2021/07/16 03:09:17;;;;;;;9.60;8.23;;;17.40;16.90;;;;;;5032704;28;20430;-86
2021/07/16 03:11:43;;;;;;;9.68;8.68;;;17.40;12.10;;;;;;5032668;28;20040;-87
2021/07/16 03:14:09;;;;;;;8.80;8.00;;;17.50;12.00;;;;;;5032766;28;20029;-86
2021/07/16 03:16:35;;;;;;;8.10;7.30;;;17.40;7.60;;;;;;5030980;28;20034;-87
2021/07/16 03:19:01;;;;;;;10.75;7.43;;;17.60;8.10;;;;;;5030697;28;20032;-87
2021/07/16 03:21:26;;;;;;;8.00;7.03;;;17.30;14.40;;;;;;5030467;28;20448;-86
2021/07/16 03:23:52;;;;;;;8.70;7.45;;;17.30;17.70;;;;;;5017110;28;20030;-86
2021/07/16 03:26:18;;;;;;;10.93;7.75;;;17.30;16.20;;;;;;5034485;28;20562;-86
2021/07/16 03:28:44;;;;;;;9.45;7.20;;;17.20;15.80;;;;;;5031238;28;20056;-87
2021/07/16 03:31:10;;;;;;;9.20;7.20;;;17.20;17.70;;;;;;5032254;28;20105;-86
2021/07/16 03:33:36;;;;;;;8.85;7.15;;;17.20;20.00;;;;;;5030174;28;20489;-87
2021/07/16 03:36:02;;;;;;;10.88;7.45;;;17.30;22.10;;;;;;5032224;28;20032;-87
2021/07/16 03:38:28;;;;;;;7.75;7.03;;;17.20;17.60;;;;;;5032591;28;20076;-87
2021/07/16 03:40:56;;;;;;;7.38;6.63;;;17.20;17.60;;;;;;5032298;28;20053;-87
2021/07/16 03:43:22;;;;;;;8.50;6.70;;;17.10;18.90;;;;;;5031816;28;20044;-86
2021/07/16 03:45:47;;;;;;;7.90;6.50;;;17.10;21.80;;;;;;5032115;28;20417;-86
2021/07/16 03:48:13;;;;;;;10.00;6.60;;;17.20;21.30;;;;;;5031226;28;20026;-87
2021/07/16 03:50:39;;;;;;;8.27;7.00;;;17.00;24.20;;;;;;5032711;28;20026;-87
2021/07/16 03:53:05;;;;;;;9.60;6.97;;;17.00;27.70;;;;;;5033080;28;20032;-87
2021/07/16 03:55:32;;;;;;;7.72;6.93;;;16.90;30.00;;;;;;5030261;28;20087;-86
2021/07/16 03:57:57;;;;;;;12.45;6.95;;;16.90;35.80;;;;;;5030820;28;20415;-86
2021/07/16 04:00:29;;;;;;;9.60;6.80;;;16.90;34.00;;;;;;5030312;28;20033;-87
2021/07/16 04:02:59;;;;;;;9.00;6.55;;;16.90;36.50;;;;;;5016458;28;20526;-87
2021/07/16 04:05:25;;;;;;;6.93;6.22;;;17.00;31.40;;;;;;5028337;28;20057;-86
2021/07/16 04:07:53;;;;;;;6.97;6.38;;;17.00;32.20;;;;;;5031815;28;20147;-87
2021/07/16 04:10:21;;;;;;;7.35;6.22;;;17.00;30.60;;;;;;5031312;28;20394;-87
2021/07/16 04:13:02;;;;;;;9.05;6.50;;;17.00;28.90;;;;;;5031196;28;20060;-86
2021/07/16 04:15:27;;;;;;;5.88;5.35;;;17.00;31.40;;;;;;5031082;28;20025;-86
2021/07/16 04:17:55;;;;;;;8.73;5.75;;;17.00;27.50;;;;;;5030076;28;20026;-87
2021/07/16 04:20:21;;;;;;;6.35;5.75;;;17.10;26.10;;;;;;5028163;28;20062;-87
2021/07/16 04:22:46;;;;;;;6.30;5.00;;;17.10;24.50;;;;;;5028618;28;20049;-87
2021/07/16 04:25:16;;;;;;;10.15;5.85;;;17.10;21.70;;;;;;5031136;28;20020;-87
2021/07/16 04:27:42;;;;;;;6.47;5.88;;;17.10;23.50;;;;;;5031525;28;20108;-87
2021/07/16 04:30:09;;;;;;;6.97;5.72;;;17.00;24.50;;;;;;5029673;28;20216;-87
2021/07/16 04:32:36;;;;;;;5.97;5.03;;;16.90;27.50;;;;;;5031964;28;20095;-87
2021/07/16 04:35:02;;;;;;;5.68;5.18;;;16.90;29.50;;;;;;5030933;28;20076;-86
2021/07/16 04:37:28;;;;;;;7.13;5.40;;;17.00;24.10;;;;;;5029353;28;20025;-86
2021/07/16 04:39:54;;;;;;;5.80;5.20;;;16.90;23.80;;;;;;5029671;28;20018;-86
2021/07/16 04:42:21;;;;;;;5.68;4.75;;;16.90;28.10;;;;;;5030851;28;20117;-86
2021/07/16 04:44:47;;;;;;;6.07;5.18;;;16.90;26.00;;;;;;5030120;28;20036;-87
2021/07/16 04:47:13;;;;;;;5.88;4.68;;;17.10;25.90;;;;;;5032878;28;20052;-86
2021/07/16 04:49:39;;;;;;;7.53;4.95;;;17.10;21.60;;;;;;5030939;28;20064;-86
2021/07/16 04:52:05;;;;;;;5.32;4.82;;;17.10;17.10;;;;;;5030927;28;20501;-86
2021/07/16 04:54:30;;;;;;;5.18;4.65;;;17.10;21.30;;;;;;5030949;28;20059;-86
2021/07/16 04:56:56;;;;;;;6.18;4.85;;;17.00;19.70;;;;;;5028699;28;20022;-86
2021/07/16 04:59:22;;;;;;;4.82;4.32;;;17.00;23.20;;;;;;5032518;28;20029;-86
2021/07/16 05:01:52;;;;;;;4.60;4.20;;;17.00;22.40;;;;;;5028889;28;20080;-87
2021/07/16 05:04:18;;;;;;;4.57;4.18;;;17.00;21.60;;;;;;5030819;28;20045;-86
2021/07/16 05:06:44;;;;;;;4.78;4.15;;;17.10;21.50;;;;;;5030058;28;20037;-86
2021/07/16 05:09:09;;;;;;;4.35;3.70;;;17.10;17.50;;;;;;5029142;28;20113;-87
2021/07/16 05:11:35;;;;;;;4.40;3.75;;;17.10;14.00;;;;;;5030406;28;20033;-87
2021/07/16 05:14:01;;;;;;;4.53;4.13;;;17.00;17.40;;;;;;5031277;28;20040;-87
2021/07/16 05:16:28;;;;;;;7.85;4.72;;;17.10;17.70;;;;;;5029027;28;20032;-87
2021/07/16 05:18:53;;;;;;;4.10;3.70;;;17.10;15.70;;;;;;5028451;28;20021;-87
2021/07/16 05:21:19;;;;;;;3.78;3.47;;;17.10;15.70;;;;;;5029447;28;20425;-88
2021/07/16 05:23:48;;;;;;;3.80;3.50;;;17.10;12.50;;;;;;5030315;28;20038;-88
2021/07/16 05:26:14;;;;;;;3.90;3.33;;;17.20;12.40;;;;;;5032749;28;20030;-90
2021/07/16 05:28:41;;;;;;;5.38;3.30;;;17.20;11.40;;;;;;5029444;28;20037;-89
2021/07/16 05:31:08;;;;;;;3.28;3.03;;;17.20;8.70;;;;;;5030597;28;20059;-90
2021/07/16 05:33:34;;;;;;;3.40;3.10;;;17.20;7.60;;;;;;5029895;28;20490;-89
2021/07/16 05:36:00;;;;;;;3.35;3.15;;;17.20;5.70;;;;;;5027448;28;20057;-89
2021/07/16 05:38:26;;;;;;;3.20;3.00;;;17.20;7.70;;;;;;5032125;28;20394;-91
2021/07/16 05:40:52;;;;;;;4.55;3.42;;;17.20;7.60;;;;;;5028942;28;20028;-89
2021/07/16 05:43:18;;;;;;;3.30;2.95;;;17.30;7.10;;;;;;5030902;28;20095;-89
2021/07/16 05:45:43;;;;;;;3.50;3.20;;;17.30;12.00;;;;;;5031177;28;20429;-90
2021/07/16 05:48:10;;;;;;;4.60;3.38;;;17.20;6.90;;;;;;5027570;28;20041;-87
2021/07/16 05:50:41;;;;;;;3.40;3.10;;;17.30;9.20;;;;;;5031286;28;20398;-87
2021/07/16 05:53:07;;;;;;;3.60;3.30;;;17.20;10.10;;;;;;5030046;28;20409;-84
2021/07/16 05:55:34;;;;;;;5.13;3.20;;;17.30;9.20;;;;;;5029571;28;20025;-84
2021/07/16 05:58:00;;;;;;;3.30;3.00;;;17.40;5.90;;;;;;5028001;28;20052;-83
2021/07/16 06:00:27;;;;;;;3.15;2.85;;;17.30;2.90;;;;;;5030050;28;20025;-85
2021/07/16 06:02:54;;;;;;;5.00;3.20;;;17.30;5.70;;;;;;5025051;28;20391;-86
2021/07/16 06:05:20;;;;;;;3.08;2.78;;;17.30;5.00;;;;;;5032471;28;20021;-86
2021/07/16 06:07:46;;;;;;;4.28;2.85;;;17.20;7.70;;;;;;5029582;28;20064;-86
2021/07/16 06:10:13;;;;;;;2.80;2.60;;;17.10;7.10;;;;;;5028640;28;20024;-85
2021/07/16 06:12:42;;;;;;;3.00;2.70;;;17.20;11.70;;;;;;5033256;28;20033;-86
2021/07/16 06:15:09;;;;;;;2.92;2.63;;;17.20;11.90;;;;;;5030767;28;20026;-85
2021/07/16 06:17:35;;;;;;;2.95;2.75;;;17.30;10.00;;;;;;5033158;28;20075;-86
2021/07/16 06:20:03;;;;;;;3.03;2.30;;;17.30;12.60;;;;;;5035073;28;20022;-87
2021/07/16 06:22:29;;;;;;;2.33;2.10;;;17.30;4.40;;;;;;5033341;28;20052;-86
2021/07/16 06:24:55;;;;;;;3.42;2.20;;;17.30;4.10;;;;;;5033486;28;20501;-87
2021/07/16 06:27:20;;;;;;;2.47;1.98;;;17.30;4.00;;;;;;5033297;28;20037;-88
2021/07/16 06:29:46;;;;;;;3.03;2.08;;;17.30;5.90;;;;;;5032035;28;20402;-88
2021/07/16 06:32:12;;;;;;;2.50;2.30;;;17.30;5.70;;;;;;5035331;28;20064;-88
2021/07/16 06:34:37;;;;;;;2.60;2.40;;;17.40;1.00;;;;;;5033777;28;20037;-88
2021/07/16 06:37:03;;;;;;;2.05;1.90;;;17.50;1.00;;;;;;5032296;28;20458;-88
2021/07/16 06:39:29;;;;;;;3.15;2.30;;;17.60;1.00;;;;;;5032748;28;20524;-88
2021/07/16 06:41:55;;;;;;;2.38;1.98;;;17.50;1.00;;;;;;5032147;28;20083;-88
2021/07/16 06:44:21;;;;;;;2.80;2.00;;;17.50;1.00;;;;;;5034236;28;20026;-88
2021/07/16 06:46:46;;;;;;;2.00;1.80;;;17.50;1.00;;;;;;5033169;28;20029;-88
2021/07/16 06:49:12;;;;;;;2.75;2.03;;;17.60;1.00;;;;;;5033692;28;20036;-88
2021/07/16 06:51:38;;;;;;;2.33;2.13;;;17.70;1.00;;;;;;5031087;28;20034;-88
2021/07/16 06:54:04;;;;;;;2.17;2.08;;;17.70;1.00;;;;;;5033007;28;20032;-88
2021/07/16 06:56:31;;;;;;;2.50;1.80;;;17.50;1.00;;;;;;5034103;28;20025;-89
2021/07/16 06:59:00;;;;;;;2.08;1.90;;;17.60;1.00;;;;;;5033377;28;20565;-88
2021/07/16 07:01:25;;;;;;;3.00;1.83;;;17.70;1.00;;;;;;5031803;28;20032;-88
2021/07/16 07:03:51;;;;;;;1.90;1.80;;;17.60;1.00;;;;;;5032844;28;20034;-88
2021/07/16 07:06:17;;;;;;;3.78;2.00;;;17.70;1.00;;;;;;5030902;28;20042;-88
2021/07/16 07:08:43;;;;;;;1.85;1.75;;;18.20;1.00;;;;;;5032999;28;20075;-88
2021/07/16 07:11:09;;;;;;;1.85;1.70;;;17.60;1.00;;;;;;5035019;28;20025;-88
2021/07/16 07:13:34;;;;;;;1.80;1.70;;;17.60;1.00;;;;;;5030866;28;20413;-88
2021/07/16 07:16:01;;;;;;;2.00;1.50;;;17.80;1.00;;;;;;5031227;28;20056;-88
2021/07/16 07:18:26;;;;;;;3.13;1.60;;;17.70;1.00;;;;;;5031194;28;20040;-88
2021/07/16 07:20:53;;;;;;;2.10;1.60;;;17.70;1.00;;;;;;5030094;28;20406;-89
2021/07/16 07:23:18;;;;;;;1.73;1.63;;;17.70;1.00;;;;;;5033734;28;20126;-88
2021/07/16 07:25:45;;;;;;;1.50;1.40;;;17.80;1.00;;;;;;5031955;28;20119;-88
2021/07/16 07:28:10;;;;;;;3.10;1.73;;;17.90;1.00;;;;;;5032523;28;20575;-88
2021/07/16 07:30:37;;;;;;;3.05;1.75;;;17.90;1.00;;;;;;5032664;28;20118;-88
2021/07/16 07:33:04;;;;;;;1.50;1.40;;;18.10;1.00;;;;;;5032449;28;20083;-89
2021/07/16 07:35:32;;;;;;;1.77;1.50;;;18.00;1.00;;;;;;5033936;28;20021;-89
2021/07/16 07:37:57;;;;;;;1.63;1.52;;;18.10;1.00;;;;;;5033442;28;20493;-89
2021/07/16 07:40:23;;;;;;;2.65;1.60;;;18.20;1.00;;;;;;5033206;28;20033;-89
2021/07/16 07:42:49;;;;;;;1.73;1.27;;;18.10;1.00;;;;;;5025404;28;20061;-90
2021/07/16 07:45:15;;;;;;;1.65;1.55;;;18.10;1.00;;;;;;5028631;28;20494;-87
2021/07/16 07:47:41;;;;;;;3.20;1.60;;;18.10;1.00;;;;;;5031225;28;20072;-87
2021/07/16 07:50:12;;;;;;;1.90;1.40;;;18.10;1.00;;;;;;5033833;28;20105;-86
2021/07/16 07:52:37;;;;;;;1.27;1.17;;;18.00;1.00;;;;;;5030269;28;20026;-87
2021/07/16 07:55:04;;;;;;;3.50;1.30;;;18.10;1.00;;;;;;5030327;28;20083;-86
2021/07/16 07:57:29;;;;;;;1.75;1.38;;;17.90;1.00;;;;;;5031680;28;20025;-87
2021/07/16 07:59:55;;;;;;;3.30;1.50;;;18.20;1.00;;;;;;5030709;28;20021;-87
2021/07/16 08:02:20;;;;;;;1.35;1.02;;;18.40;1.00;;;;;;5031697;28;20022;-87
2021/07/16 08:04:46;;;;;;;1.50;1.40;;;18.10;1.00;;;;;;5255574;22;20054;-87
2021/07/16 08:07:12;;;;;;;1.50;1.40;;;18.10;1.00;;;;;;5030999;28;20482;-88
2021/07/16 08:09:38;;;;;;;1.48;1.35;;;18.10;1.00;;;;;;5030352;28;20040;-87
2021/07/16 08:12:04;;;;;;;1.20;1.20;;;18.10;1.00;;;;;;5031122;28;20386;-87
2021/07/16 08:14:30;;;;;;;1.77;1.20;;;18.30;1.00;;;;;;5013974;28;20028;-87
2021/07/16 08:16:56;;;;;;;1.48;1.25;;;18.40;1.00;;;;;;5030003;28;20056;-86
2021/07/16 08:19:22;;;;;;;0.90;0.90;;;18.50;1.00;;;;;;5013066;28;20068;-87
2021/07/16 08:21:50;;;;;;;1.85;1.00;;;18.70;1.00;;;;;;5030667;28;20489;-87
2021/07/16 08:24:16;;;;;;;1.55;0.95;;;18.80;1.00;;;;;;5030450;28;20508;-87
2021/07/16 08:26:43;;;;;;;2.20;1.10;;;18.70;1.00;;;;;;5030632;28;20048;-88
2021/07/16 08:29:09;;;;;;;1.67;1.00;;;18.70;1.00;;;;;;5033337;28;20129;-87
2021/07/16 08:31:35;;;;;;;1.48;0.80;;;18.50;1.00;;;;;;5027020;28;20021;-87
2021/07/16 08:34:01;;;;;;;2.42;1.20;;;18.60;1.00;;;;;;5027907;28;20080;-87
2021/07/16 08:36:27;;;;;;;1.00;0.90;;;18.90;1.00;;;;;;5030556;28;20449;-87
2021/07/16 08:38:52;;;;;;;1.85;1.02;;;19.10;1.00;;;;;;5029840;28;20120;-86
2021/07/16 08:41:18;;;;;;;2.45;1.08;;;19.00;1.00;;;;;;4998370;28;20109;-87
2021/07/16 08:43:44;;;;;;;1.38;1.00;;;19.10;1.00;;;;;;5030700;28;20464;-86
2021/07/16 08:46:11;;;;;;;9.07;1.33;;;19.00;1.00;;;;;;5029214;28;20026;-87
2021/07/16 08:48:37;;;;;;;3.78;1.35;;;18.80;1.00;;;;;;5030688;28;20128;-87
2021/07/16 08:51:03;;;;;;;1.10;1.00;;;18.70;1.00;;;;;;5030954;28;20113;-87
2021/07/16 08:53:30;;;;;;;2.33;1.33;;;18.60;1.00;;;;;;5030997;28;20104;-87
2021/07/16 08:55:56;;;;;;;2.00;1.73;;;18.70;1.00;;;;;;5013973;28;20030;-87
2021/07/16 08:58:22;;;;;;;1.35;1.17;;;18.60;1.00;;;;;;5029888;28;20040;-87
2021/07/16 09:00:47;;;;;;;1.33;1.23;;;18.60;1.00;;;;;;5030872;28;20052;-87
2021/07/16 09:03:13;;;;;;;1.20;1.10;;;18.60;1.00;;;;;;5029908;28;20056;-87
2021/07/16 09:05:44;;;;;;;1.40;1.30;;;18.70;1.00;;;;;;5011619;28;20472;-87
2021/07/16 09:08:18;;;;;;;1.30;1.20;;;18.70;1.00;;;;;;5014665;28;20116;-87
2021/07/16 09:10:48;;;;;;;1.52;1.17;;;18.70;1.00;;;;;;5011305;28;20025;-87
2021/07/16 09:13:15;;;;;;;1.08;1.08;;;18.60;1.00;;;;;;5029162;28;20456;-87
2021/07/16 09:15:49;;;;;;;2.17;1.40;;;18.70;1.00;;;;;;5012168;28;20017;-87
2021/07/16 09:18:26;;;;;;;1.85;1.45;;;18.80;1.00;;;;;;5029743;28;20501;-87
2021/07/16 09:21:01;;;;;;;1.67;1.23;;;18.60;1.00;;;;;;5027586;28;20041;-87
2021/07/16 09:23:35;;;;;;;2.47;1.40;;;18.60;1.00;;;;;;5027666;28;20049;-87
2021/07/16 09:26:05;;;;;;;1.30;1.20;;;18.90;1.00;;;;;;5028786;28;20029;-88
2021/07/16 09:28:31;;;;;;;1.25;1.15;;;19.20;1.00;;;;;;5030316;28;20038;-86
2021/07/16 09:31:24;;;;;;;3.15;1.63;;;19.20;1.00;;;;;;5029796;28;20044;-86
2021/07/16 09:34:00;;;;;;;2.20;1.33;;;19.00;1.00;;;;;;5025422;28;20588;-86
2021/07/16 09:36:31;;;;;;;1.60;1.50;;;19.10;1.00;;;;;;5027213;28;20021;-87
2021/07/16 09:39:02;;;;;;;2.00;1.80;;;19.10;1.00;;;;;;5024076;28;20022;-86
2021/07/16 09:41:29;;;;;;;1.60;1.45;;;19.00;1.00;;;;;;5030832;28;20026;-87
2021/07/16 09:44:01;;;;;;;1.73;1.60;;;19.10;1.00;;;;;;5029798;28;20489;-86
2021/07/16 09:46:27;;;;;;;1.67;1.58;;;19.00;1.00;;;;;;5029355;28;20021;-84
2021/07/16 09:48:52;;;;;;;1.83;1.70;;;19.00;1.00;;;;;;5029143;28;20508;-85
2021/07/16 09:51:25;;;;;;;1.95;1.85;;;19.10;1.00;;;;;;5026619;28;20034;-84
2021/07/16 09:53:54;;;;;;;1.85;1.70;;;19.20;1.00;;;;;;5029092;28;20402;-85
2021/07/16 09:56:23;;;;;;;2.72;1.80;;;19.50;1.00;;;;;;5031541;28;20021;-85
2021/07/16 09:58:59;;;;;;;2.38;1.98;;;19.80;1.00;;;;;;5011573;28;20064;-86
2021/07/16 10:01:30;;;;;;;2.10;1.90;;;20.00;1.00;;;;;;5027921;28;20351;-87
2021/07/16 10:04:01;;;;;;;4.55;2.17;;;19.90;1.00;;;;;;5030882;28;20058;-94
2021/07/16 10:06:28;;;;;;;2.10;1.90;;;19.90;1.00;;;;;;5033385;28;20029;-92
2021/07/16 10:08:55;;;;;;;2.15;2.00;;;19.80;1.00;;;;;;5016419;28;20116;-93
2021/07/16 10:11:22;;;;;;;2.15;1.98;;;20.00;1.00;;;;;;5033055;28;20025;-91
2021/07/16 10:13:51;;;;;;;3.95;2.30;;;20.00;1.00;;;;;;5012239;28;20493;-90
2021/07/16 10:16:17;;;;;;;4.15;2.40;;;19.90;1.00;;;;;;5023808;28;20040;-89
2021/07/16 10:18:43;;;;;;;3.20;2.42;;;20.00;1.00;;;;;;5032587;28;20051;-90
2021/07/16 10:21:10;;;;;;;7.32;2.90;;;19.90;1.00;;;;;;5029971;28;20378;-89
2021/07/16 10:23:39;;;;;;;3.88;2.78;;;19.90;1.00;;;;;;5015372;28;20452;-91
2021/07/16 10:26:09;;;;;;;2.45;2.25;;;20.10;1.00;;;;;;5033744;28;20025;-93
2021/07/16 10:28:42;;;;;;;2.65;2.45;;;20.20;1.00;;;;;;5033600;28;20112;-94
2021/07/16 10:31:32;;;;;;;2.88;2.10;;;20.40;1.00;;;;;;5013689;28;20022;-85
2021/07/16 10:34:01;;;;;;;3.55;2.70;;;20.70;1.00;;;;;;5026672;28;20027;-88
2021/07/16 10:36:49;;;;;;;3.38;2.10;;;20.60;1.00;;;;;;5026843;28;20026;-89
2021/07/16 10:39:37;;;;;;;3.10;2.85;;;20.50;1.00;;;;;;5015935;28;20676;-86
2021/07/16 10:42:25;;;;;;;3.22;2.55;;;20.50;1.00;;;;;;5015016;28;20087;-86
2021/07/16 10:44:52;;;;;;;2.72;2.53;;;20.40;1.00;;;;;;5030425;28;20075;-87
2021/07/16 10:47:33;;;;;;;2.75;2.55;;;20.40;1.00;;;;;;5015484;28;20025;-90
2021/07/16 10:49:59;;;;;;;3.38;2.55;;;21.10;1.00;;;;;;5030008;28;20029;-87
2021/07/16 10:52:46;;;;;;;2.80;2.50;;;21.40;1.00;;;;;;5011447;28;20044;-87
2021/07/16 10:55:14;;;;;;;4.40;2.90;;;21.30;1.00;;;;;;5029185;28;20460;-86
2021/07/16 10:57:45;;;;;;;3.00;2.70;;;21.00;1.00;;;;;;5012321;28;20033;-86
2021/07/16 11:00:36;;;;;;;2.72;2.53;;;21.30;1.00;;;;;;5032421;28;20029;-86
2021/07/16 11:03:06;;;;;;;4.13;2.75;;;21.60;1.00;;;;;;4999360;28;20046;-86
2021/07/16 11:05:32;;;;;;;3.72;2.75;;;21.10;1.00;;;;;;5031872;28;20084;-86
2021/07/16 11:08:06;;;;;;;2.72;2.40;;;20.60;1.00;;;;;;5032646;28;20060;-86
2021/07/16 11:10:47;;;;;;;3.67;2.88;;;20.70;1.00;;;;;;5031037;28;20018;-87
2021/07/16 11:13:38;;;;;;;2.75;2.50;;;21.00;1.00;;;;;;5032016;28;20112;-88
2021/07/16 11:19:09;;;;;;;3.28;2.80;;;21.80;1.00;;;;;;5023380;28;20045;-88
2021/07/16 11:21:47;;;;;;;2.75;2.40;;;22.30;1.00;;;;;;5031748;28;20404;-88
2021/07/16 11:24:16;;;;;;;4.15;2.70;;;22.90;1.00;;;;;;5031707;28;20502;-88
2021/07/16 11:27:05;;;;;;;2.60;2.40;;;23.30;1.00;;;;;;5031754;28;20029;-88
2021/07/16 11:29:38;;;;;;;3.05;2.78;;;22.60;1.00;;;;;;5026870;28;20055;-87
2021/07/16 11:32:06;;;;;;;3.47;3.17;;;22.80;1.00;;;;;;5032962;28;20041;-87
2021/07/16 11:34:33;;;;;;;3.00;2.60;;;23.10;1.00;;;;;;5030165;28;20100;-87
2021/07/16 11:36:58;;;;;;;6.15;2.63;;;23.30;1.00;;;;;;5031326;28;20064;-87
2021/07/16 11:39:31;;;;;;;2.67;2.47;;;23.90;1.00;;;;;;5032242;28;20017;-86
2021/07/16 11:41:58;;;;;;;2.95;2.63;;;24.10;1.00;;;;;;5016076;28;20120;-87
2021/07/16 11:44:30;;;;;;;2.60;2.40;;;24.20;1.00;;;;;;5029067;28;20501;-87
2021/07/16 11:46:56;;;;;;;3.00;2.10;;;24.70;1.00;;;;;;5030344;28;20504;-87
2021/07/16 11:49:24;;;;;;;3.65;2.50;;;24.90;1.00;;;;;;5029179;28;20481;-87
2021/07/16 11:52:00;;;;;;;2.92;2.00;;;24.80;99.90;;;;;;5032856;28;20104;-87
2021/07/16 11:54:30;;;;;;;2.55;2.28;;;24.50;99.90;;;;;;5031574;28;20048;-87
2021/07/16 11:57:00;;;;;;;3.75;2.40;;;24.00;1.00;;;;;;5015720;28;20524;-87
2021/07/16 11:59:27;;;;;;;2.80;2.35;;;23.60;1.00;;;;;;5011716;28;20481;-87
2021/07/16 12:02:13;;;;;;;2.95;1.90;;;23.60;1.00;;;;;;5029647;28;20577;-87
2021/07/16 12:04:40;;;;;;;3.63;1.95;;;25.50;99.90;;;;;;5027971;28;20084;-87
2021/07/16 12:07:07;;;;;;;3.30;2.40;;;24.60;99.90;;;;;;5030866;28;20052;-87
2021/07/16 12:09:36;;;;;;;3.10;2.30;;;23.90;99.90;;;;;;5030455;28;20028;-87
2021/07/16 12:12:25;;;;;;;2.17;1.98;;;23.60;99.90;;;;;;5031294;28;20057;-87
2021/07/16 12:14:52;;;;;;;3.83;2.00;;;25.10;99.90;;;;;;5010980;28;20102;-87
2021/07/16 12:17:33;;;;;;;5.25;2.10;;;25.40;99.90;;;;;;5032959;28;20025;-87
2021/07/16 12:20:00;;;;;;;4.20;2.25;;;25.40;99.90;;;;;;5030494;28;20025;-87
2021/07/16 12:22:31;;;;;;;2.97;2.10;;;24.90;99.90;;;;;;5030464;28;20413;-87
2021/07/16 12:24:58;;;;;;;2.58;2.20;;;24.60;99.90;;;;;;5029510;28;20104;-87
2021/07/16 12:27:24;;;;;;;2.42;2.22;;;24.30;99.90;;;;;;5028056;28;20041;-87
2021/07/16 12:29:58;;;;;;;2.58;2.05;;;25.00;99.90;;;;;;5030607;28;20025;-87
2021/07/16 12:32:41;;;;;;;2.40;2.05;;;29.80;99.90;;;;;;5028401;28;20025;-87
2021/07/16 12:35:18;;;;;;;3.95;2.20;;;29.60;99.90;;;;;;5031675;28;20053;-88
2021/07/16 12:37:46;;;;;;;3.90;2.53;;;29.50;99.90;;;;;;5030420;28;20026;-87
2021/07/16 12:40:16;;;;;;;2.88;2.50;;;28.70;99.90;;;;;;5030544;28;20029;-87
2021/07/16 12:43:04;;;;;;;2.60;2.40;;;26.30;99.90;;;;;;5029848;28;20040;-87
2021/07/16 12:45:57;;;;;;;2.88;2.38;;;25.70;99.90;;;;;;5029977;28;20043;-87
2021/07/16 12:48:29;;;;;;;2.83;2.63;;;25.70;99.90;;;;;;5013754;28;20041;-87
2021/07/16 12:51:05;;;;;;;3.10;2.90;;;25.10;99.90;;;;;;5031005;28;20453;-87
2021/07/16 12:53:34;;;;;;;2.80;2.60;;;24.10;99.90;;;;;;5028324;28;20025;-87